Terminal Aerodrome Forecast
Issued by NWS Springfield, MO

Home | Current Version | Previous Version | Text Only | Print | Product List | Glossary On
Versions: 1 2 3 4 5 6 7 8 9 10 11 12 13 14 15 16 17 18 19
000
FTUS43 KSGF 170500
TAFSGF
TAF
KSGF 170526Z 1706/1806 13006KT P6SM BKN250
      TEMPO 1711/1714 5SM BR
     FM171900 14008KT P6SM SCT040 BKN250 PROB30 1802/1806 5SM -TSRA
      BR BKN040CB=

USA.gov is the U.S. government's official web portal to all federal, state and local government web resources and services.